Moran, Minnesota
Current Conditions -  °F | °C
As of 2:13 AM on Monday 24 Nov 2014 (Local Time) from KSAZ Reporting Station
Overcast Overcast  
Wind Chill: -17°   Ceiling: 1200
Heat Index: -8°   Visibility: 10mi
Dew Point: -9°   Wind: 17mph
Humidity: 93%   Direction: 310°NW
Pressure: 29.41"   Gusts: NA
Location:  46.4416°N, 94.6389°W
Report Text: KSAZ 240813Z AUTO 31015KT 10SM OVC012 M08/M09 A2941 RMK AO2
Loading
Personal Weather Stations






























Interactive Weather Map New forecast layout! Learn more

10-Day Weather Forecast

Advertisements
Track Severe Weather on mobile